.
WxDataArchive / Data Records for 2009-10-07
2009-10-06 October 2009 2009-10-08

Data Records for Wednesday, 07 October 2009

Time	Temp	Chill	HIndex	Humid	Dewpt	 Wind 	HiWind	WindDir	Rain 	Barom 
-----	----	-----	------	-----	-----	------	------	-------	-----	----- 
00:00	56.7	56.7	56.7	60	43.0	4	10	270	0.00	29.576 
00:05	56.3	56.3	56.3	60	42.6	4	10	270	0.00	29.576 
00:10	56.0	56.0	56.0	59	41.9	4	11	270	0.00	29.576 
00:15	55.7	55.7	55.7	59	41.6	3	6	270	0.00	29.580 
00:20	55.4	55.4	55.4	59	41.3	4	11	270	0.00	29.580 
00:25	55.3	55.3	55.3	60	41.7	4	7	270	0.00	29.580 
00:30	55.1	55.1	55.1	61	41.9	3	6	270	0.00	29.583 
00:35	54.8	54.8	54.8	62	42.0	4	7	270	0.00	29.583 
00:40	54.7	54.7	54.7	62	41.9	4	9	270	0.00	29.583 
00:45	54.5	54.5	54.5	62	41.7	3	9	270	0.00	29.585 
00:50	54.2	54.2	54.2	63	41.9	3	9	270	0.00	29.585 
00:55	54.1	54.1	54.1	62	41.4	4	9	248	0.00	29.585 
01:00	53.8	53.8	53.8	62	41.1	3	6	270	0.00	29.591 
01:05	53.5	53.5	53.5	63	41.2	3	9	270	0.00	29.591 
01:10	53.3	53.3	53.3	62	40.6	4	9	270	0.00	29.591 
01:15	53.3	53.3	53.3	63	41.0	4	10	248	0.00	29.598 
01:20	53.2	53.2	53.2	62	40.5	3	9	270	0.00	29.598 
01:25	53.2	53.2	53.2	62	40.5	4	9	270	0.00	29.598 
01:30	53.1	53.1	53.1	62	40.4	5	11	270	0.00	29.602 
01:35	52.9	52.9	52.9	62	40.2	4	9	270	0.00	29.602 
01:40	52.9	52.9	52.9	62	40.2	5	11	270	0.00	29.602 
01:45	52.9	52.9	52.9	62	40.2	6	11	270	0.00	29.616 
01:50	52.9	52.9	52.9	62	40.2	5	11	270	0.00	29.616 
01:55	52.9	52.9	52.9	62	40.2	7	12	270	0.00	29.616 
02:00	52.8	52.8	52.8	62	40.1	5	10	270	0.00	29.623 
02:05	52.8	52.8	52.8	61	39.7	6	12	270	0.00	29.623 
02:10	52.8	52.8	52.8	59	38.9	7	12	270	0.00	29.623 
02:15	52.6	52.6	52.6	60	39.1	5	10	270	0.00	29.628 
02:20	52.6	52.6	52.6	60	39.1	5	11	270	0.00	29.628 
02:25	52.5	52.5	52.5	59	38.6	5	10	270	0.00	29.628 
02:30	52.3	52.3	52.3	59	38.4	5	10	270	0.00	29.633 
02:35	52.3	52.3	52.3	59	38.4	5	10	270	0.00	29.633 
02:40	52.0	52.0	52.0	59	38.1	6	11	270	0.00	29.633 
02:45	51.9	51.9	51.9	60	38.5	5	10	270	0.00	29.646 
02:50	51.6	51.6	51.6	60	38.2	6	13	270	0.00	29.646 
02:55	51.3	51.3	51.3	60	37.9	5	9	270	0.00	29.646 
03:00	51.1	51.1	51.1	62	38.5	4	7	270	0.00	29.651 
03:05	50.8	50.8	50.8	62	38.3	5	10	270	0.00	29.651 
03:10	50.7	50.7	50.7	62	38.2	4	9	270	0.00	29.651 
03:15	50.5	50.5	50.5	62	38.0	5	10	270	0.00	29.655 
03:20	50.5	50.5	50.5	62	38.0	5	9	270	0.00	29.655 
03:25	50.4	50.4	50.4	62	37.9	4	10	270	0.00	29.655 
03:30	50.4	50.4	50.4	62	37.9	5	8	270	0.00	29.663 
03:35	50.4	50.4	50.4	62	37.9	4	10	270	0.00	29.663 
03:40	50.4	50.4	50.4	62	37.9	6	10	270	0.00	29.663 
03:45	50.2	50.2	50.2	62	37.7	4	8	270	0.00	29.669 
03:50	50.2	50.2	50.2	62	37.7	4	10	270	0.00	29.669 
03:55	50.2	50.2	50.2	62	37.7	5	10	270	0.00	29.669 
04:00	50.2	50.2	50.2	62	37.7	5	10	270	0.00	29.681 
04:05	50.2	50.2	50.2	62	37.7	4	9	270	0.00	29.681 
04:10	50.1	50.1	50.1	63	38.0	3	9	270	0.00	29.681 
04:15	50.1	50.1	50.1	64	38.4	4	8	270	0.00	29.692 
04:20	50.1	50.1	50.1	63	38.0	4	7	270	0.00	29.692 
04:25	50.2	50.2	50.2	63	38.1	4	9	270	0.00	29.692 
04:30	50.1	50.1	50.1	63	38.0	4	7	270	0.00	29.700 
04:35	50.1	50.1	50.1	63	38.0	4	7	270	0.00	29.700 
04:40	50.1	50.1	50.1	64	38.4	3	7	270	0.00	29.700 
04:45	50.1	50.1	50.1	64	38.4	3	10	270	0.00	29.710 
04:50	50.1	50.1	50.1	64	38.4	4	7	270	0.00	29.710 
04:55	49.9	48.8	49.9	65	38.6	4	7	270	0.00	29.710 
05:00	49.9	49.9	49.9	65	38.6	3	9	270	0.00	29.715 
05:05	49.8	48.6	49.8	65	38.5	4	9	270	0.00	29.715 
05:10	49.8	49.8	49.8	65	38.5	3	6	270	0.00	29.715 
05:15	49.6	48.4	49.6	65	38.3	4	7	270	0.00	29.727 
05:20	49.6	48.4	49.6	65	38.3	4	6	270	0.00	29.727 
05:25	49.6	49.6	49.6	65	38.3	3	7	270	0.00	29.727 
05:30	49.5	48.3	49.5	66	38.6	4	9	270	0.00	29.742 
05:35	49.5	48.3	49.5	66	38.6	4	7	270	0.00	29.742 
05:40	49.5	48.3	49.5	66	38.6	4	9	270	0.00	29.742 
05:45	49.4	48.2	49.4	67	38.9	4	9	270	0.00	29.761 
05:50	49.4	48.2	49.4	66	38.5	4	9	270	0.00	29.761 
05:55	49.4	49.4	49.4	67	38.9	3	7	270	0.00	29.761 
06:00	49.2	47.9	49.2	67	38.7	4	10	270	0.00	29.775 
06:05	49.2	49.2	49.2	67	38.7	3	6	270	0.00	29.775 
06:10	49.1	47.8	49.1	67	38.6	4	10	270	0.00	29.775 
06:15	49.1	47.8	49.1	67	38.6	4	10	270	0.00	29.779 
06:20	49.1	47.8	49.1	67	38.6	4	10	270	0.00	29.779 
06:25	48.9	47.6	48.9	67	38.4	4	9	270	0.00	29.779 
06:30	48.9	47.6	48.9	67	38.4	4	7	270	0.00	29.783 
06:35	48.8	47.5	48.8	67	38.3	4	10	270	0.00	29.783 
06:40	48.8	48.8	48.8	68	38.7	3	7	270	0.00	29.783 
06:45	48.6	48.6	48.6	68	38.5	3	7	270	0.00	29.792 
06:50	48.6	47.3	48.6	68	38.5	4	9	270	0.00	29.792 
06:55	48.6	48.6	48.6	68	38.5	3	7	270	0.00	29.792 
07:00	48.6	47.3	48.6	68	38.5	4	7	270	0.00	29.806 
07:05	48.6	47.3	48.6	68	38.5	4	9	270	0.00	29.806 
07:10	48.5	48.5	48.5	69	38.8	3	9	270	0.00	29.806 
07:15	48.5	48.5	48.5	69	38.8	3	6	270	0.00	29.813 
07:20	48.5	48.5	48.5	69	38.8	3	11	270	0.00	29.813 
07:25	48.3	48.3	48.3	70	39.0	3	9	270	0.00	29.813 
07:30	48.3	48.3	48.3	70	39.0	3	6	270	0.00	29.822 
07:35	48.3	48.3	48.3	71	39.3	3	5	270	0.00	29.822 
07:40	48.3	48.3	48.3	71	39.3	3	6	270	0.00	29.822 
07:45	48.2	48.2	48.2	71	39.2	3	5	270	0.00	29.829 
07:50	48.3	48.3	48.3	71	39.3	3	7	270	0.00	29.829 
07:55	48.3	48.3	48.3	71	39.3	3	7	270	0.00	29.829 
08:00	48.3	48.3	48.3	72	39.7	2	6	270	0.00	29.842 
08:05	48.3	48.3	48.3	72	39.7	2	5	270	0.00	29.842 
08:10	48.3	48.3	48.3	72	39.7	2	6	270	0.00	29.842 
08:15	48.3	48.3	48.3	73	40.1	2	6	292	0.00	29.855 
08:20	48.3	48.3	48.3	72	39.7	3	4	270	0.00	29.855 
08:25	48.5	48.5	48.5	72	39.9	2	5	270	0.00	29.855 
08:30	48.5	48.5	48.5	72	39.9	2	4	270	0.00	29.871 
08:35	48.5	48.5	48.5	72	39.9	2	5	248	0.00	29.871 
08:40	48.5	48.5	48.5	72	39.9	3	6	270	0.00	29.871 
08:45	48.5	48.5	48.5	72	39.9	2	5	270	0.00	29.878 
08:50	48.5	48.5	48.5	73	40.2	2	4	270	0.00	29.878 
08:55	48.5	48.5	48.5	73	40.2	2	5	270	0.00	29.878 
09:00	48.5	48.5	48.5	73	40.2	2	4	270	0.00	29.892 
09:05	48.5	48.5	48.5	73	40.2	2	4	270	0.00	29.892 
09:10	48.6	48.6	48.6	73	40.3	1	3	270	0.00	29.892 
09:15	48.5	48.5	48.5	74	40.6	1	4	315	0.00	29.905 
09:20	48.6	48.6	48.6	74	40.7	2	7	270	0.00	29.905 
09:25	48.6	48.6	48.6	74	40.7	2	6	270	0.00	29.905 
09:30	48.6	48.6	48.6	75	41.0	2	5	270	0.00	29.914 
09:35	48.8	48.8	48.8	76	41.6	2	6	270	0.00	29.914 
09:40	48.9	48.9	48.9	76	41.7	2	5	270	0.00	29.914 
09:45	48.9	48.9	48.9	77	42.0	2	5	270	0.00	29.922 
09:50	48.9	48.9	48.9	77	42.0	2	4	292	0.00	29.922 
09:55	49.1	49.1	49.1	77	42.2	2	5	315	0.00	29.922 
10:00	49.1	49.1	49.1	76	41.9	2	5	270	0.00	29.934 
10:05	49.2	49.2	49.2	76	42.0	2	5	292	0.00	29.934 
10:10	49.4	49.4	49.4	75	41.8	2	4	270	0.00	29.934 
10:15	49.4	49.4	49.4	75	41.8	3	5	270	0.00	29.939 
10:20	49.4	49.4	49.4	75	41.8	1	4	292	0.00	29.939 
10:25	49.5	49.5	49.5	75	41.9	2	4	292	0.00	29.939 
10:30	49.8	49.8	49.8	75	42.2	1	4	292	0.00	29.950 
10:35	49.9	49.9	49.9	74	41.9	1	3	292	0.00	29.950 
10:40	50.1	50.1	50.1	74	42.1	1	4	292	0.00	29.950 
10:45	50.4	50.4	50.4	73	42.1	2	5	292	0.00	29.955 
10:50	50.5	50.5	50.5	73	42.2	2	4	292	0.00	29.955 
10:55	50.7	50.7	50.7	73	42.4	2	5	292	0.00	29.955 
11:00	50.8	50.8	50.8	72	42.1	3	6	270	0.00	29.962 
11:05	50.8	50.8	50.8	73	42.5	2	5	270	0.00	29.962 
11:10	51.1	51.1	51.1	73	42.7	1	4	292	0.00	29.962 
11:15	51.3	51.3	51.3	72	42.6	2	4	292	0.00	29.969 
11:20	51.4	51.4	51.4	73	43.0	2	5	292	0.00	29.969 
11:25	51.6	51.6	51.6	72	42.9	1	5	270	0.00	29.969 
11:30	51.7	51.7	51.7	71	42.6	2	5	270	0.00	29.980 
11:35	51.9	51.9	51.9	70	42.4	2	3	338	0.00	29.980 
11:40	52.2	52.2	52.2	71	43.1	2	4	270	0.00	29.980 
11:45	52.8	52.8	52.8	71	43.7	2	3	338	0.00	29.981 
11:50	52.8	52.8	52.8	68	42.5	2	5	315	0.00	29.981 
11:55	52.8	52.8	52.8	69	42.9	2	4	270	0.00	29.981 
12:00	52.9	52.9	52.9	69	43.0	1	4	270	0.00	29.984 
12:05	52.9	52.9	52.9	69	43.0	2	4	270	0.00	29.984 
12:10	52.9	52.9	52.9	69	43.0	1	4	270	0.00	29.984 
12:15	52.8	52.8	52.8	68	42.5	2	4	270	0.00	29.997 
12:20	52.3	52.3	52.3	69	42.4	2	5	292	0.00	29.997 
12:25	52.3	52.3	52.3	69	42.4	2	4	270	0.00	29.997 
12:30	52.5	52.5	52.5	69	42.6	2	5	270	0.00	30.001 
12:35	52.8	52.8	52.8	69	42.9	2	4	270	0.00	30.001 
12:40	53.5	53.5	53.5	67	42.8	2	5	248	0.00	30.001 
12:45	53.6	53.6	53.6	66	42.5	2	4	292	0.00	30.001 
12:50	53.9	53.9	53.9	67	43.2	1	4	292	0.00	30.001 
12:55	54.4	54.4	54.4	66	43.3	2	4	292	0.00	30.001 
13:00	54.4	54.4	54.4	65	42.9	1	5	270	0.00	30.009 
13:05	54.4	54.4	54.4	64	42.5	1	3	270	0.00	30.009 
13:10	54.1	54.1	54.1	65	42.6	1	3	270	0.00	30.009 
13:15	54.1	54.1	54.1	64	42.2	2	5	270	0.00	30.014 
13:20	54.1	54.1	54.1	65	42.6	2	5	270	0.00	30.014 
13:25	53.9	53.9	53.9	65	42.4	2	4	270	0.00	30.014 
13:30	54.1	54.1	54.1	64	42.2	2	4	270	0.00	30.016 
13:35	54.4	54.4	54.4	63	42.1	2	5	270	0.00	30.016 
13:40	54.1	54.1	54.1	62	41.4	3	6	270	0.00	30.016 
13:45	54.1	54.1	54.1	62	41.4	3	5	270	0.00	30.016 
13:50	54.2	54.2	54.2	63	41.9	2	4	270	0.00	30.016 
13:55	55.0	55.0	55.0	65	43.5	2	5	270	0.00	30.016 
14:00	55.1	55.1	55.1	62	42.3	1	4	248	0.00	30.015 
14:05	55.1	55.1	55.1	62	42.3	1	3	248	0.00	30.015 
14:10	55.1	55.1	55.1	62	42.3	2	5	248	0.00	30.015 
14:15	55.6	55.6	55.6	61	42.4	2	5	270	0.00	30.013 
14:20	56.0	56.0	56.0	60	42.3	2	5	315	0.00	30.013 
14:25	56.2	56.2	56.2	60	42.5	2	5	270	0.00	30.013 
14:30	55.9	55.9	55.9	60	42.2	1	4	315	0.00	30.010 
14:35	56.3	56.3	56.3	61	43.0	2	5	270	0.00	30.010 
14:40	56.3	56.3	56.3	59	42.2	2	5	270	0.00	30.010 
14:45	56.6	56.6	56.6	59	42.4	2	5	270	0.00	30.003 
14:50	56.5	56.5	56.5	58	41.9	2	4	270	0.00	30.003 
14:55	56.0	56.0	56.0	58	41.4	1	3	270	0.00	30.003 
15:00	55.9	55.9	55.9	59	41.8	1	3	225	0.00	30.011 
15:05	55.6	55.6	55.6	59	41.5	1	3	248	0.00	30.011 
15:10	55.6	55.6	55.6	59	41.5	1	4	270	0.00	30.011 
15:15	55.9	55.9	55.9	58	41.3	2	5	270	0.00	30.009 
15:20	56.0	56.0	56.0	57	41.0	2	5	270	0.00	30.009 
15:25	56.0	56.0	56.0	58	41.4	2	5	270	0.00	30.009 
15:30	56.3	56.3	56.3	59	42.2	1	3	248	0.00	30.012 
15:35	56.9	56.9	56.9	58	42.3	1	5	248	0.00	30.012 
15:40	57.0	57.0	57.0	57	41.9	2	5	248	0.00	30.012 
15:45	57.3	57.3	57.3	58	42.6	1	2	248	0.00	30.016 
15:50	57.3	57.3	57.3	56	41.7	2	5	270	0.00	30.016 
15:55	56.9	56.9	56.9	57	41.8	1	4	248	0.00	30.016 
16:00	56.5	56.5	56.5	58	41.9	1	5	248	0.00	30.016 
16:05	56.3	56.3	56.3	58	41.7	1	4	248	0.00	30.016 
16:10	56.2	56.2	56.2	57	41.2	2	4	248	0.00	30.016 
16:15	56.2	56.2	56.2	57	41.2	2	6	248	0.00	30.019 
16:20	56.3	56.3	56.3	57	41.3	1	3	270	0.00	30.019 
16:25	56.5	56.5	56.5	57	41.5	1	4	248	0.00	30.019 
16:30	56.9	56.9	56.9	55	40.9	2	6	270	0.00	30.017 
16:35	57.2	57.2	57.2	55	41.2	2	5	270	0.00	30.017 
16:40	57.0	57.0	57.0	56	41.5	2	4	248	0.00	30.017 
16:45	56.9	56.9	56.9	56	41.4	2	5	270	0.00	30.020 
16:50	56.7	56.7	56.7	57	41.6	1	5	270	0.00	30.020 
16:55	56.9	56.9	56.9	58	42.3	2	4	270	0.00	30.020 
17:00	56.9	56.9	56.9	57	41.8	1	3	270	0.00	30.020 
17:05	56.7	56.7	56.7	57	41.6	1	4	270	0.00	30.020 
17:10	56.9	56.9	56.9	54	40.4	2	5	270	0.00	30.020 
17:15	57.0	57.0	57.0	55	41.0	1	3	270	0.00	30.018 
17:20	57.2	57.2	57.2	55	41.2	1	3	270	0.00	30.018 
17:25	57.2	57.2	57.2	54	40.7	1	4	270	0.00	30.018 
17:30	57.2	57.2	57.2	54	40.7	2	4	248	0.00	30.019 
17:35	57.2	57.2	57.2	54	40.7	1	3	270	0.00	30.019 
17:40	57.2	57.2	57.2	55	41.2	1	5	270	0.00	30.019 
17:45	57.2	57.2	57.2	53	40.2	2	4	270	0.00	30.020 
17:50	57.0	57.0	57.0	54	40.5	1	3	315	0.00	30.020 
17:55	56.9	56.9	56.9	55	40.9	1	3	292	0.00	30.020 
18:00	56.7	56.7	56.7	54	40.2	1	4	248	0.00	30.024 
18:05	56.9	56.9	56.9	54	40.4	1	4	248	0.00	30.024 
18:10	56.7	56.7	56.7	54	40.2	1	4	248	0.00	30.024 
18:15	56.7	56.7	56.7	55	40.7	1	3	248	0.00	30.024 
18:20	56.7	56.7	56.7	55	40.7	1	4	248	0.00	30.024 
18:25	56.6	56.6	56.6	56	41.1	0	2	248	0.00	30.024 
18:30	56.5	56.5	56.5	55	40.5	0	3	248	0.00	30.026 
18:35	56.3	56.3	56.3	56	40.8	0	3	248	0.00	30.026 
18:40	56.2	56.2	56.2	56	40.7	0	2	248	0.00	30.026 
18:45	55.9	55.9	55.9	58	41.3	0	1	248	0.00	30.030 
18:50	55.7	55.7	55.7	59	41.6	0	1	248	0.00	30.030 
18:55	55.3	55.3	55.3	59	41.2	0	1	248	0.00	30.030 
19:00	55.0	55.0	55.0	60	41.4	0	1	248	0.00	30.036 
19:05	54.7	54.7	54.7	61	41.5	0	0	---	0.00	30.036 
19:10	54.2	54.2	54.2	62	41.5	0	0	---	0.00	30.036 
19:15	53.8	53.8	53.8	62	41.1	0	0	---	0.00	30.047 
19:20	53.3	53.3	53.3	63	41.0	0	0	---	0.00	30.047 
19:25	52.9	52.9	52.9	63	40.7	0	0	---	0.00	30.047 
19:30	52.6	52.6	52.6	64	40.8	0	0	---	0.00	30.048 
19:35	52.5	52.5	52.5	65	41.1	0	0	---	0.00	30.048 
19:40	52.0	52.0	52.0	66	41.0	0	0	---	0.00	30.048 
19:45	51.7	51.7	51.7	67	41.1	0	0	---	0.00	30.037 
19:50	51.4	51.4	51.4	68	41.2	0	0	---	0.00	30.037 
19:55	51.0	51.0	51.0	69	41.2	0	0	---	0.00	30.037 
20:00	50.5	50.5	50.5	70	41.1	0	0	---	0.00	30.042 
20:05	50.1	50.1	50.1	71	41.1	0	0	---	0.00	30.042 
20:10	49.6	49.6	49.6	72	40.9	0	0	---	0.00	30.042 
20:15	49.2	49.2	49.2	74	41.3	0	0	---	0.00	30.055 
20:20	48.8	48.8	48.8	76	41.6	0	0	---	0.00	30.055 
20:25	48.3	48.3	48.3	77	41.4	0	0	---	0.00	30.055 
20:30	48.0	48.0	48.0	78	41.5	0	0	---	0.00	30.041 
20:35	47.6	47.6	47.6	79	41.4	0	0	---	0.00	30.041 
20:40	47.4	47.4	47.4	80	41.5	0	0	---	0.00	30.041 
20:45	47.1	47.1	47.1	81	41.6	0	0	---	0.00	30.056 
20:50	46.8	46.8	46.8	81	41.3	0	0	---	0.00	30.056 
20:55	46.7	46.7	46.7	82	41.5	0	0	---	0.00	30.056 
21:00	46.4	46.4	46.4	83	41.5	0	0	---	0.00	30.053 
21:05	46.4	46.4	46.4	83	41.5	0	0	---	0.00	30.053 
21:10	46.4	46.4	46.4	83	41.5	0	0	---	0.00	30.053 
21:15	46.4	46.4	46.4	83	41.5	0	0	---	0.00	30.057 
21:20	46.4	46.4	46.4	83	41.5	0	0	---	0.00	30.057 
21:25	46.4	46.4	46.4	83	41.5	0	0	---	0.00	30.057 
21:30	46.4	46.4	46.4	83	41.5	0	0	---	0.00	30.060 
21:35	46.4	46.4	46.4	82	41.2	0	0	---	0.00	30.060 
21:40	46.5	46.5	46.5	82	41.3	0	0	---	0.00	30.060 
21:45	46.4	46.4	46.4	82	41.2	0	0	---	0.00	30.057 
21:50	46.4	46.4	46.4	82	41.2	0	0	---	0.00	30.057 
21:55	46.4	46.4	46.4	81	40.9	0	0	---	0.00	30.057 
22:00	46.4	46.4	46.4	81	40.9	0	0	---	0.00	30.056 
22:05	46.4	46.4	46.4	81	40.9	0	0	---	0.00	30.056 
22:10	46.4	46.4	46.4	81	40.9	0	1	248	0.00	30.056 
22:15	46.4	46.4	46.4	81	40.9	0	0	---	0.00	30.046 
22:20	46.4	46.4	46.4	81	40.9	0	1	248	0.00	30.046 
22:25	46.2	46.2	46.2	81	40.7	0	0	---	0.00	30.046 
22:30	46.2	46.2	46.2	81	40.7	0	0	---	0.00	30.043 
22:35	46.2	46.2	46.2	81	40.7	0	0	---	0.00	30.043 
22:40	46.1	46.1	46.1	81	40.6	0	0	---	0.00	30.043 
22:45	46.1	46.1	46.1	81	40.6	0	0	---	0.00	30.052 
22:50	46.1	46.1	46.1	81	40.6	0	1	248	0.00	30.052 
22:55	46.1	46.1	46.1	81	40.6	0	1	248	0.00	30.052 
23:00	46.2	46.2	46.2	80	40.4	0	1	248	0.00	30.055 
23:05	46.4	46.4	46.4	80	40.6	0	1	248	0.00	30.055 
23:10	46.7	46.7	46.7	79	40.5	0	2	248	0.00	30.055 
23:15	46.8	46.8	46.8	78	40.3	0	1	248	0.00	30.046 
23:20	47.1	47.1	47.1	77	40.3	0	1	248	0.00	30.046 
23:25	47.3	47.3	47.3	77	40.5	0	0	---	0.00	30.046 
23:30	47.4	47.4	47.4	77	40.6	0	1	248	0.00	30.050 
23:35	47.6	47.6	47.6	77	40.8	0	1	248	0.00	30.050 
23:40	47.6	47.6	47.6	76	40.4	0	1	248	0.00	30.050 
23:45	47.6	47.6	47.6	76	40.4	0	1	248	0.00	30.052 
23:50	47.6	47.6	47.6	76	40.4	0	1	248	0.00	30.052 
23:55	47.6	47.6	47.6	76	40.4	0	3	248	0.00	30.052 

CoCoRaHS
IN-AL-39
A2 Web Hosting
Creative Commons License
GoDaddy
search engine by freefind advanced

loaded 2018-11-15 17:49:31 • last modified 2010-11-18 10:43:29
Privacy PolicyDisclaimer
• wx.awcolley.com is powered by PmWiki v.2002016 •
• all content (unless otherwise noted) © 2018 A W Colley